sensor_id;sensor_type;location;lat;lon;timestamp;temperature;humidity
39849;DHT22;25518;47.878;15.914;2023-10-19T00:00:59;4.70;99.90
39849;DHT22;25518;47.878;15.914;2023-10-19T00:03:30;4.70;99.90
39849;DHT22;25518;47.878;15.914;2023-10-19T00:06:01;4.70;99.90
39849;DHT22;25518;47.878;15.914;2023-10-19T00:08:32;4.90;99.90
39849;DHT22;25518;47.878;15.914;2023-10-19T00:11:20;4.90;99.90
39849;DHT22;25518;47.878;15.914;2023-10-19T00:13:53;4.70;99.90
39849;DHT22;25518;47.878;15.914;2023-10-19T00:16:25;4.70;99.90
39849;DHT22;25518;47.878;15.914;2023-10-19T00:19:00;4.70;99.90
39849;DHT22;25518;47.878;15.914;2023-10-19T00:21:31;4.60;99.90
39849;DHT22;25518;47.878;15.914;2023-10-19T00:24:19;4.40;99.90
39849;DHT22;25518;47.878;15.914;2023-10-19T00:26:52;4.30;99.90
39849;DHT22;25518;47.878;15.914;2023-10-19T00:29:24;4.20;99.90
39849;DHT22;25518;47.878;15.914;2023-10-19T00:32:03;4.30;99.90
39849;DHT22;25518;47.878;15.914;2023-10-19T00:34:36;4.30;99.90
39849;DHT22;25518;47.878;15.914;2023-10-19T00:37:09;4.30;99.90
39849;DHT22;25518;47.878;15.914;2023-10-19T00:39:41;4.20;99.90
39849;DHT22;25518;47.878;15.914;2023-10-19T00:42:17;4.10;99.90
39849;DHT22;25518;47.878;15.914;2023-10-19T00:44:54;4.20;99.90
39849;DHT22;25518;47.878;15.914;2023-10-19T00:47:32;4.20;99.90
39849;DHT22;25518;47.878;15.914;2023-10-19T00:50:10;4.30;99.90
39849;DHT22;25518;47.878;15.914;2023-10-19T00:52:46;4.10;99.90
39849;DHT22;25518;47.878;15.914;2023-10-19T00:55:20;1.60;99.90
39849;DHT22;25518;47.878;15.914;2023-10-19T00:57:51;4.10;99.90
39849;DHT22;25518;47.878;15.914;2023-10-19T01:00:24;4.20;99.90
39849;DHT22;25518;47.878;15.914;2023-10-19T01:03:05;4.30;99.90
39849;DHT22;25518;47.878;15.914;2023-10-19T01:05:37;4.40;99.90
39849;DHT22;25518;47.878;15.914;2023-10-19T01:08:08;4.40;99.90
39849;DHT22;25518;47.878;15.914;2023-10-19T01:10:55;4.50;99.90
39849;DHT22;25518;47.878;15.914;2023-10-19T01:13:28;4.50;99.90
39849;DHT22;25518;47.878;15.914;2023-10-19T01:15:59;4.60;99.90
39849;DHT22;25518;47.878;15.914;2023-10-19T01:18:31;4.50;99.90
39849;DHT22;25518;47.878;15.914;2023-10-19T01:21:03;4.40;99.90
39849;DHT22;25518;47.878;15.914;2023-10-19T01:23:38;4.30;99.90
39849;DHT22;25518;47.878;15.914;2023-10-19T01:26:09;4.20;99.90
39849;DHT22;25518;47.878;15.914;2023-10-19T01:28:41;4.20;99.90
39849;DHT22;25518;47.878;15.914;2023-10-19T01:31:18;4.10;99.90
39849;DHT22;25518;47.878;15.914;2023-10-19T01:34:08;4.20;99.90
39849;DHT22;25518;47.878;15.914;2023-10-19T01:36:40;2.70;99.90
39849;DHT22;25518;47.878;15.914;2023-10-19T01:39:14;4.20;99.90
39849;DHT22;25518;47.878;15.914;2023-10-19T01:41:46;4.20;99.90
39849;DHT22;25518;47.878;15.914;2023-10-19T01:44:17;4.10;99.90
39849;DHT22;25518;47.878;15.914;2023-10-19T01:46:51;4.10;99.90
39849;DHT22;25518;47.878;15.914;2023-10-19T01:49:22;3.90;99.90
39849;DHT22;25518;47.878;15.914;2023-10-19T01:51:56;4.00;99.90
39849;DHT22;25518;47.878;15.914;2023-10-19T01:54:27;3.90;99.90
39849;DHT22;25518;47.878;15.914;2023-10-19T01:56:58;3.90;99.90
39849;DHT22;25518;47.878;15.914;2023-10-19T01:59:29;3.80;99.90
39849;DHT22;25518;47.878;15.914;2023-10-19T02:02:00;3.80;99.90
39849;DHT22;25518;47.878;15.914;2023-10-19T02:04:32;3.90;99.90
39849;DHT22;25518;47.878;15.914;2023-10-19T02:07:06;3.90;99.90
39849;DHT22;25518;47.878;15.914;2023-10-19T02:09:43;3.80;99.90
39849;DHT22;25518;47.878;15.914;2023-10-19T02:12:14;3.80;99.90
39849;DHT22;25518;47.878;15.914;2023-10-19T02:14:45;3.90;99.90
39849;DHT22;25518;47.878;15.914;2023-10-19T02:17:16;4.00;99.90
39849;DHT22;25518;47.878;15.914;2023-10-19T02:19:48;4.00;99.90
39849;DHT22;25518;47.878;15.914;2023-10-19T02:22:18;4.00;99.90
39849;DHT22;25518;47.878;15.914;2023-10-19T02:24:49;4.10;99.90
39849;DHT22;25518;47.878;15.914;2023-10-19T02:27:20;4.10;99.90
39849;DHT22;25518;47.878;15.914;2023-10-19T02:29:52;4.20;99.90
39849;DHT22;25518;47.878;15.914;2023-10-19T02:32:23;4.30;99.90
39849;DHT22;25518;47.878;15.914;2023-10-19T02:34:54;4.40;99.90
39849;DHT22;25518;47.878;15.914;2023-10-19T02:37:27;4.40;99.90
39849;DHT22;25518;47.878;15.914;2023-10-19T02:39:59;4.40;99.90
39849;DHT22;25518;47.878;15.914;2023-10-19T02:42:31;4.40;99.90
39849;DHT22;25518;47.878;15.914;2023-10-19T02:45:02;4.40;99.90
39849;DHT22;25518;47.878;15.914;2023-10-19T02:47:35;4.40;99.90
39849;DHT22;25518;47.878;15.914;2023-10-19T02:50:07;4.20;99.90
39849;DHT22;25518;47.878;15.914;2023-10-19T02:52:44;4.20;99.90
39849;DHT22;25518;47.878;15.914;2023-10-19T02:55:15;4.20;99.90
39849;DHT22;25518;47.878;15.914;2023-10-19T02:57:47;4.20;99.90
39849;DHT22;25518;47.878;15.914;2023-10-19T03:00:18;4.30;99.90
39849;DHT22;25518;47.878;15.914;2023-10-19T03:02:51;4.20;99.90
39849;DHT22;25518;47.878;15.914;2023-10-19T03:05:23;4.10;99.90
39849;DHT22;25518;47.878;15.914;2023-10-19T03:07:56;4.00;99.90
39849;DHT22;25518;47.878;15.914;2023-10-19T03:10:27;3.90;99.90
39849;DHT22;25518;47.878;15.914;2023-10-19T03:13:12;3.80;99.90
39849;DHT22;25518;47.878;15.914;2023-10-19T03:15:45;3.80;99.90
39849;DHT22;25518;47.878;15.914;2023-10-19T03:18:16;3.70;99.90
39849;DHT22;25518;47.878;15.914;2023-10-19T03:20:48;3.50;99.90
39849;DHT22;25518;47.878;15.914;2023-10-19T03:23:21;3.60;99.90
39849;DHT22;25518;47.878;15.914;2023-10-19T03:25:54;3.40;99.90
39849;DHT22;25518;47.878;15.914;2023-10-19T03:28:45;3.40;99.90
39849;DHT22;25518;47.878;15.914;2023-10-19T03:31:17;3.50;99.90
39849;DHT22;25518;47.878;15.914;2023-10-19T03:33:49;3.50;99.90
39849;DHT22;25518;47.878;15.914;2023-10-19T03:36:25;3.50;99.90
39849;DHT22;25518;47.878;15.914;2023-10-19T03:38:56;3.60;99.90
39849;DHT22;25518;47.878;15.914;2023-10-19T03:41:30;3.60;99.90
39849;DHT22;25518;47.878;15.914;2023-10-19T03:44:06;3.60;99.90
39849;DHT22;25518;47.878;15.914;2023-10-19T03:46:38;3.80;99.90
39849;DHT22;25518;47.878;15.914;2023-10-19T03:49:24;3.70;99.90
39849;DHT22;25518;47.878;15.914;2023-10-19T03:52:05;3.70;99.90
39849;DHT22;25518;47.878;15.914;2023-10-19T03:54:40;3.70;99.90
39849;DHT22;25518;47.878;15.914;2023-10-19T03:57:14;3.70;99.90
39849;DHT22;25518;47.878;15.914;2023-10-19T03:59:50;3.80;99.90
39849;DHT22;25518;47.878;15.914;2023-10-19T04:02:27;3.90;99.90
39849;DHT22;25518;47.878;15.914;2023-10-19T04:05:00;3.90;99.90
39849;DHT22;25518;47.878;15.914;2023-10-19T04:07:32;3.90;99.90
39849;DHT22;25518;47.878;15.914;2023-10-19T04:10:04;3.90;99.90
39849;DHT22;25518;47.878;15.914;2023-10-19T04:12:39;3.90;99.90
39849;DHT22;25518;47.878;15.914;2023-10-19T04:15:12;4.00;99.90
39849;DHT22;25518;47.878;15.914;2023-10-19T04:17:48;4.00;99.90
39849;DHT22;25518;47.878;15.914;2023-10-19T04:20:19;4.10;99.90
39849;DHT22;25518;47.878;15.914;2023-10-19T04:22:50;4.10;99.90
39849;DHT22;25518;47.878;15.914;2023-10-19T04:25:22;4.00;99.90
39849;DHT22;25518;47.878;15.914;2023-10-19T04:27:56;4.00;99.90
39849;DHT22;25518;47.878;15.914;2023-10-19T04:30:27;4.20;99.90
39849;DHT22;25518;47.878;15.914;2023-10-19T04:32:59;4.20;99.90
39849;DHT22;25518;47.878;15.914;2023-10-19T04:35:32;4.10;99.90
39849;DHT22;25518;47.878;15.914;2023-10-19T04:38:05;4.20;99.90
39849;DHT22;25518;47.878;15.914;2023-10-19T04:40:37;4.20;99.90
39849;DHT22;25518;47.878;15.914;2023-10-19T04:43:08;4.20;99.90
39849;DHT22;25518;47.878;15.914;2023-10-19T04:45:40;4.20;99.90
39849;DHT22;25518;47.878;15.914;2023-10-19T04:48:11;4.20;99.90
39849;DHT22;25518;47.878;15.914;2023-10-19T04:50:42;4.30;99.90
39849;DHT22;25518;47.878;15.914;2023-10-19T04:53:13;4.20;99.90
39849;DHT22;25518;47.878;15.914;2023-10-19T04:55:46;4.10;99.90
39849;DHT22;25518;47.878;15.914;2023-10-19T04:58:16;4.00;99.90
39849;DHT22;25518;47.878;15.914;2023-10-19T05:00:47;4.10;99.90
39849;DHT22;25518;47.878;15.914;2023-10-19T05:03:19;4.10;99.90
39849;DHT22;25518;47.878;15.914;2023-10-19T05:05:50;4.00;99.90
39849;DHT22;25518;47.878;15.914;2023-10-19T05:08:23;3.90;99.90
39849;DHT22;25518;47.878;15.914;2023-10-19T05:10:56;3.80;99.90
39849;DHT22;25518;47.878;15.914;2023-10-19T05:13:31;3.70;99.90
39849;DHT22;25518;47.878;15.914;2023-10-19T05:16:03;3.60;99.90
39849;DHT22;25518;47.878;15.914;2023-10-19T05:18:34;3.60;99.90
39849;DHT22;25518;47.878;15.914;2023-10-19T05:21:05;3.60;99.90
39849;DHT22;25518;47.878;15.914;2023-10-19T05:23:36;3.60;99.90
39849;DHT22;25518;47.878;15.914;2023-10-19T05:26:07;3.50;99.90
39849;DHT22;25518;47.878;15.914;2023-10-19T05:28:38;3.40;99.90
39849;DHT22;25518;47.878;15.914;2023-10-19T05:31:09;3.30;99.90
39849;DHT22;25518;47.878;15.914;2023-10-19T05:33:42;3.40;99.90
39849;DHT22;25518;47.878;15.914;2023-10-19T05:36:13;3.50;99.90
39849;DHT22;25518;47.878;15.914;2023-10-19T05:38:45;3.60;99.90
39849;DHT22;25518;47.878;15.914;2023-10-19T05:41:16;3.60;99.90
39849;DHT22;25518;47.878;15.914;2023-10-19T05:43:49;3.60;99.90
39849;DHT22;25518;47.878;15.914;2023-10-19T05:46:20;3.50;99.90
39849;DHT22;25518;47.878;15.914;2023-10-19T05:48:52;3.60;99.90
39849;DHT22;25518;47.878;15.914;2023-10-19T05:51:27;3.60;99.90
39849;DHT22;25518;47.878;15.914;2023-10-19T05:53:58;3.70;99.90
39849;DHT22;25518;47.878;15.914;2023-10-19T05:56:33;3.70;99.90
39849;DHT22;25518;47.878;15.914;2023-10-19T05:59:05;3.70;99.90
39849;DHT22;25518;47.878;15.914;2023-10-19T06:01:38;3.60;99.90
39849;DHT22;25518;47.878;15.914;2023-10-19T06:04:09;3.80;99.90
39849;DHT22;25518;47.878;15.914;2023-10-19T06:06:41;3.80;99.90
39849;DHT22;25518;47.878;15.914;2023-10-19T06:09:12;3.90;99.90
39849;DHT22;25518;47.878;15.914;2023-10-19T06:11:46;3.80;99.90
39849;DHT22;25518;47.878;15.914;2023-10-19T06:14:17;3.70;99.90
39849;DHT22;25518;47.878;15.914;2023-10-19T06:16:48;1.20;99.90
39849;DHT22;25518;47.878;15.914;2023-10-19T06:19:19;3.80;99.90
39849;DHT22;25518;47.878;15.914;2023-10-19T06:21:51;3.70;99.90
39849;DHT22;25518;47.878;15.914;2023-10-19T06:24:22;3.80;99.90
39849;DHT22;25518;47.878;15.914;2023-10-19T06:26:53;3.90;99.90
39849;DHT22;25518;47.878;15.914;2023-10-19T06:29:24;4.00;99.90
39849;DHT22;25518;47.878;15.914;2023-10-19T06:31:58;4.00;99.90
39849;DHT22;25518;47.878;15.914;2023-10-19T06:34:29;4.10;99.90
39849;DHT22;25518;47.878;15.914;2023-10-19T06:37:01;4.10;99.90
39849;DHT22;25518;47.878;15.914;2023-10-19T06:39:34;4.20;99.90
39849;DHT22;25518;47.878;15.914;2023-10-19T06:45:13;4.40;99.90
39849;DHT22;25518;47.878;15.914;2023-10-19T06:47:47;4.50;99.90
39849;DHT22;25518;47.878;15.914;2023-10-19T06:50:21;4.70;99.90
39849;DHT22;25518;47.878;15.914;2023-10-19T06:52:52;4.70;99.90
39849;DHT22;25518;47.878;15.914;2023-10-19T06:55:25;4.80;99.90
39849;DHT22;25518;47.878;15.914;2023-10-19T06:57:58;4.80;99.90
39849;DHT22;25518;47.878;15.914;2023-10-19T07:00:30;5.00;99.90
39849;DHT22;25518;47.878;15.914;2023-10-19T07:03:01;5.00;99.90
39849;DHT22;25518;47.878;15.914;2023-10-19T07:05:33;5.10;99.90
39849;DHT22;25518;47.878;15.914;2023-10-19T07:08:05;5.10;99.90
39849;DHT22;25518;47.878;15.914;2023-10-19T07:10:38;5.10;99.90
39849;DHT22;25518;47.878;15.914;2023-10-19T07:13:08;5.20;99.90
39849;DHT22;25518;47.878;15.914;2023-10-19T07:15:40;5.30;99.90
39849;DHT22;25518;47.878;15.914;2023-10-19T07:18:13;5.40;99.90
39849;DHT22;25518;47.878;15.914;2023-10-19T07:20:44;5.40;99.90
39849;DHT22;25518;47.878;15.914;2023-10-19T07:23:19;5.50;99.90
39849;DHT22;25518;47.878;15.914;2023-10-19T07:25:53;5.50;99.90
39849;DHT22;25518;47.878;15.914;2023-10-19T07:28:26;5.60;99.90
39849;DHT22;25518;47.878;15.914;2023-10-19T07:30:58;5.70;99.90
39849;DHT22;25518;47.878;15.914;2023-10-19T07:33:30;5.90;99.90
39849;DHT22;25518;47.878;15.914;2023-10-19T07:36:01;5.90;99.90
39849;DHT22;25518;47.878;15.914;2023-10-19T07:38:37;5.90;99.90
39849;DHT22;25518;47.878;15.914;2023-10-19T07:41:09;5.90;99.90
39849;DHT22;25518;47.878;15.914;2023-10-19T07:43:40;6.00;99.90
39849;DHT22;25518;47.878;15.914;2023-10-19T07:46:11;6.20;99.90
39849;DHT22;25518;47.878;15.914;2023-10-19T07:48:42;6.30;99.90
39849;DHT22;25518;47.878;15.914;2023-10-19T07:51:13;6.40;99.90
39849;DHT22;25518;47.878;15.914;2023-10-19T07:53:44;6.40;99.90
39849;DHT22;25518;47.878;15.914;2023-10-19T07:56:16;6.60;99.90
39849;DHT22;25518;47.878;15.914;2023-10-19T07:58:47;6.70;99.90
39849;DHT22;25518;47.878;15.914;2023-10-19T08:01:18;6.70;99.90
39849;DHT22;25518;47.878;15.914;2023-10-19T08:03:50;6.80;99.90
39849;DHT22;25518;47.878;15.914;2023-10-19T08:06:22;6.90;99.90
39849;DHT22;25518;47.878;15.914;2023-10-19T08:08:53;6.90;99.90
39849;DHT22;25518;47.878;15.914;2023-10-19T08:11:26;7.10;99.90
39849;DHT22;25518;47.878;15.914;2023-10-19T08:13:57;7.30;99.90
39849;DHT22;25518;47.878;15.914;2023-10-19T08:16:28;7.40;99.90
39849;DHT22;25518;47.878;15.914;2023-10-19T08:18:59;7.50;99.90
39849;DHT22;25518;47.878;15.914;2023-10-19T08:21:30;7.50;99.90
39849;DHT22;25518;47.878;15.914;2023-10-19T08:24:01;7.70;99.90
39849;DHT22;25518;47.878;15.914;2023-10-19T08:26:35;7.80;99.90
39849;DHT22;25518;47.878;15.914;2023-10-19T08:29:07;7.90;99.90
39849;DHT22;25518;47.878;15.914;2023-10-19T08:31:44;8.10;99.90
39849;DHT22;25518;47.878;15.914;2023-10-19T08:34:15;8.30;99.90
39849;DHT22;25518;47.878;15.914;2023-10-19T08:36:46;8.50;99.90
39849;DHT22;25518;47.878;15.914;2023-10-19T08:39:17;8.70;99.90
39849;DHT22;25518;47.878;15.914;2023-10-19T08:41:48;8.80;99.90
39849;DHT22;25518;47.878;15.914;2023-10-19T08:44:23;9.00;99.90
39849;DHT22;25518;47.878;15.914;2023-10-19T08:46:56;9.10;99.90
39849;DHT22;25518;47.878;15.914;2023-10-19T08:49:28;9.20;99.90
39849;DHT22;25518;47.878;15.914;2023-10-19T08:51:59;9.40;99.90
39849;DHT22;25518;47.878;15.914;2023-10-19T08:54:31;9.80;99.90
39849;DHT22;25518;47.878;15.914;2023-10-19T08:57:04;9.80;99.90
39849;DHT22;25518;47.878;15.914;2023-10-19T08:59:35;9.80;99.90
39849;DHT22;25518;47.878;15.914;2023-10-19T09:02:06;9.90;99.90
39849;DHT22;25518;47.878;15.914;2023-10-19T09:04:42;9.90;99.90
39849;DHT22;25518;47.878;15.914;2023-10-19T09:07:16;10.00;99.90
39849;DHT22;25518;47.878;15.914;2023-10-19T09:09:48;10.20;99.90
39849;DHT22;25518;47.878;15.914;2023-10-19T09:12:19;10.30;99.90
39849;DHT22;25518;47.878;15.914;2023-10-19T09:14:50;10.30;99.90
39849;DHT22;25518;47.878;15.914;2023-10-19T09:17:28;9.80;99.90
39849;DHT22;25518;47.878;15.914;2023-10-19T09:20:00;10.40;99.90
39849;DHT22;25518;47.878;15.914;2023-10-19T09:22:36;10.60;99.90
39849;DHT22;25518;47.878;15.914;2023-10-19T09:25:15;10.10;99.90
39849;DHT22;25518;47.878;15.914;2023-10-19T09:27:46;10.70;99.90
39849;DHT22;25518;47.878;15.914;2023-10-19T09:30:17;10.80;99.90
39849;DHT22;25518;47.878;15.914;2023-10-19T09:32:50;10.80;99.90
39849;DHT22;25518;47.878;15.914;2023-10-19T09:35:24;11.00;99.90
39849;DHT22;25518;47.878;15.914;2023-10-19T09:37:58;11.20;99.90
39849;DHT22;25518;47.878;15.914;2023-10-19T09:40:31;11.40;99.90
39849;DHT22;25518;47.878;15.914;2023-10-19T09:43:05;11.50;99.90
39849;DHT22;25518;47.878;15.914;2023-10-19T09:45:41;11.70;99.90
39849;DHT22;25518;47.878;15.914;2023-10-19T09:48:15;11.80;99.90
39849;DHT22;25518;47.878;15.914;2023-10-19T09:50:53;12.10;99.90
39849;DHT22;25518;47.878;15.914;2023-10-19T09:53:27;12.30;99.90
39849;DHT22;25518;47.878;15.914;2023-10-19T09:56:00;12.50;99.90
39849;DHT22;25518;47.878;15.914;2023-10-19T09:58:45;12.60;99.90
39849;DHT22;25518;47.878;15.914;2023-10-19T10:01:17;12.80;99.90
39849;DHT22;25518;47.878;15.914;2023-10-19T10:03:53;13.00;99.90
39849;DHT22;25518;47.878;15.914;2023-10-19T10:06:30;13.00;99.90
39849;DHT22;25518;47.878;15.914;2023-10-19T10:09:02;13.30;99.90
39849;DHT22;25518;47.878;15.914;2023-10-19T10:11:34;13.60;99.90
39849;DHT22;25518;47.878;15.914;2023-10-19T10:14:23;13.70;99.90
39849;DHT22;25518;47.878;15.914;2023-10-19T10:19:32;14.00;99.90
39849;DHT22;25518;47.878;15.914;2023-10-19T10:22:08;14.00;99.90
39849;DHT22;25518;47.878;15.914;2023-10-19T10:24:42;14.00;99.90
39849;DHT22;25518;47.878;15.914;2023-10-19T10:27:16;14.00;99.90
39849;DHT22;25518;47.878;15.914;2023-10-19T10:29:59;13.90;99.90
39849;DHT22;25518;47.878;15.914;2023-10-19T10:32:45;14.00;99.90
39849;DHT22;25518;47.878;15.914;2023-10-19T10:38:10;14.00;99.90
39849;DHT22;25518;47.878;15.914;2023-10-19T10:40:50;14.20;99.90
39849;DHT22;25518;47.878;15.914;2023-10-19T10:43:21;14.40;99.90
39849;DHT22;25518;47.878;15.914;2023-10-19T21:01:11;9.50;99.90
39849;DHT22;25518;47.878;15.914;2023-10-19T21:03:43;9.50;99.90
39849;DHT22;25518;47.878;15.914;2023-10-19T21:06:15;9.20;99.90
39849;DHT22;25518;47.878;15.914;2023-10-19T21:08:46;9.10;99.90
39849;DHT22;25518;47.878;15.914;2023-10-19T21:11:18;9.00;99.90
39849;DHT22;25518;47.878;15.914;2023-10-19T21:13:50;8.90;99.90
39849;DHT22;25518;47.878;15.914;2023-10-19T21:16:21;8.90;99.90
39849;DHT22;25518;47.878;15.914;2023-10-19T21:18:52;8.90;99.90
39849;DHT22;25518;47.878;15.914;2023-10-19T21:21:23;8.70;99.90
39849;DHT22;25518;47.878;15.914;2023-10-19T21:23:54;8.70;99.90
39849;DHT22;25518;47.878;15.914;2023-10-19T21:26:27;8.60;99.90
39849;DHT22;25518;47.878;15.914;2023-10-19T21:28:59;8.70;99.90
39849;DHT22;25518;47.878;15.914;2023-10-19T21:31:31;8.50;99.90
39849;DHT22;25518;47.878;15.914;2023-10-19T21:34:01;8.50;99.90
39849;DHT22;25518;47.878;15.914;2023-10-19T21:36:33;8.50;99.90
39849;DHT22;25518;47.878;15.914;2023-10-19T21:39:04;8.60;99.90
39849;DHT22;25518;47.878;15.914;2023-10-19T21:41:38;8.60;99.90
39849;DHT22;25518;47.878;15.914;2023-10-19T21:44:09;8.50;99.90
39849;DHT22;25518;47.878;15.914;2023-10-19T21:46:40;8.70;99.90
39849;DHT22;25518;47.878;15.914;2023-10-19T21:49:11;8.60;99.90
39849;DHT22;25518;47.878;15.914;2023-10-19T21:51:41;8.60;99.90
39849;DHT22;25518;47.878;15.914;2023-10-19T21:54:12;8.50;99.90
39849;DHT22;25518;47.878;15.914;2023-10-19T21:56:44;8.70;99.90
39849;DHT22;25518;47.878;15.914;2023-10-19T21:59:15;8.70;99.90
39849;DHT22;25518;47.878;15.914;2023-10-19T22:01:46;8.70;99.90
39849;DHT22;25518;47.878;15.914;2023-10-19T22:04:17;8.70;99.90
39849;DHT22;25518;47.878;15.914;2023-10-19T22:06:48;8.60;99.90
39849;DHT22;25518;47.878;15.914;2023-10-19T22:09:19;8.70;99.90
39849;DHT22;25518;47.878;15.914;2023-10-19T22:11:52;8.60;99.90
39849;DHT22;25518;47.878;15.914;2023-10-19T22:14:24;8.50;99.90
39849;DHT22;25518;47.878;15.914;2023-10-19T22:16:55;8.60;99.90
39849;DHT22;25518;47.878;15.914;2023-10-19T22:19:26;8.70;99.90
39849;DHT22;25518;47.878;15.914;2023-10-19T22:21:57;8.60;99.90
39849;DHT22;25518;47.878;15.914;2023-10-19T22:24:29;8.50;99.90
39849;DHT22;25518;47.878;15.914;2023-10-19T22:27:00;8.50;99.90
39849;DHT22;25518;47.878;15.914;2023-10-19T22:29:31;8.40;99.90
39849;DHT22;25518;47.878;15.914;2023-10-19T22:32:03;8.40;99.90
39849;DHT22;25518;47.878;15.914;2023-10-19T22:34:34;8.40;99.90
39849;DHT22;25518;47.878;15.914;2023-10-19T22:37:05;8.50;99.90
39849;DHT22;25518;47.878;15.914;2023-10-19T22:39:36;8.50;99.90
39849;DHT22;25518;47.878;15.914;2023-10-19T22:42:07;8.60;99.90
39849;DHT22;25518;47.878;15.914;2023-10-19T22:44:38;8.60;99.90
39849;DHT22;25518;47.878;15.914;2023-10-19T22:47:09;8.80;99.90
39849;DHT22;25518;47.878;15.914;2023-10-19T22:49:41;8.70;99.90
39849;DHT22;25518;47.878;15.914;2023-10-19T22:52:12;8.70;99.90
39849;DHT22;25518;47.878;15.914;2023-10-19T22:54:44;8.70;99.90
39849;DHT22;25518;47.878;15.914;2023-10-19T22:57:15;8.60;99.90
39849;DHT22;25518;47.878;15.914;2023-10-19T22:59:46;8.70;99.90
39849;DHT22;25518;47.878;15.914;2023-10-19T23:02:17;8.60;99.90
39849;DHT22;25518;47.878;15.914;2023-10-19T23:04:50;8.50;99.90
39849;DHT22;25518;47.878;15.914;2023-10-19T23:07:21;8.60;99.90
39849;DHT22;25518;47.878;15.914;2023-10-19T23:09:51;8.70;99.90
39849;DHT22;25518;47.878;15.914;2023-10-19T23:12:24;8.40;99.90
39849;DHT22;25518;47.878;15.914;2023-10-19T23:14:55;8.40;99.90
39849;DHT22;25518;47.878;15.914;2023-10-19T23:17:27;8.40;99.90
39849;DHT22;25518;47.878;15.914;2023-10-19T23:20:02;8.40;99.90
39849;DHT22;25518;47.878;15.914;2023-10-19T23:22:50;8.30;99.90
39849;DHT22;25518;47.878;15.914;2023-10-19T23:25:21;8.30;99.90
39849;DHT22;25518;47.878;15.914;2023-10-19T23:27:53;8.30;99.90
39849;DHT22;25518;47.878;15.914;2023-10-19T23:30:25;8.20;99.90
39849;DHT22;25518;47.878;15.914;2023-10-19T23:32:56;8.10;99.90
39849;DHT22;25518;47.878;15.914;2023-10-19T23:35:27;8.10;99.90
39849;DHT22;25518;47.878;15.914;2023-10-19T23:37:59;8.00;99.90
39849;DHT22;25518;47.878;15.914;2023-10-19T23:40:30;7.90;99.90
39849;DHT22;25518;47.878;15.914;2023-10-19T23:43:01;7.90;99.90
39849;DHT22;25518;47.878;15.914;2023-10-19T23:45:32;7.90;99.90
39849;DHT22;25518;47.878;15.914;2023-10-19T23:48:04;7.80;99.90
39849;DHT22;25518;47.878;15.914;2023-10-19T23:50:41;8.00;99.90
39849;DHT22;25518;47.878;15.914;2023-10-19T23:53:12;7.90;99.90
39849;DHT22;25518;47.878;15.914;2023-10-19T23:55:44;7.80;99.90
39849;DHT22;25518;47.878;15.914;2023-10-19T23:58:16;7.90;99.90
